createdAt,value
2022-09-20T00:00:49.909Z,31.14
2022-09-20T00:03:17.463Z,29.88
2022-09-20T00:05:46.011Z,30.51
2022-09-20T00:08:14.506Z,30.92
2022-09-20T00:10:43.042Z,30.27
2022-09-20T00:13:12.088Z,30.71
2022-09-20T00:15:43.237Z,30.95
2022-09-20T00:18:11.516Z,30.26
2022-09-20T00:20:46.198Z,30.49
2022-09-20T00:23:13.932Z,31.16
2022-09-20T00:25:41.479Z,30.73
2022-09-20T00:28:09.402Z,30.90
2022-09-20T00:30:37.141Z,31.26
2022-09-20T00:33:04.435Z,31.08
2022-09-20T00:35:31.723Z,30.99
2022-09-20T00:37:58.979Z,31.37
2022-09-20T00:40:29.221Z,31.72
2022-09-20T00:42:56.509Z,30.98
2022-09-20T00:45:23.648Z,30.45
2022-09-20T00:48:06.745Z,30.78
2022-09-20T00:50:33.924Z,31.25
2022-09-20T00:53:06.345Z,31.16
2022-09-20T00:55:35.213Z,30.65
2022-09-20T00:58:02.837Z,30.36
2022-09-20T01:00:30.243Z,30.95
2022-09-20T01:02:59.133Z,30.99
2022-09-20T01:05:26.775Z,31.14
2022-09-20T01:07:54.947Z,30.86
2022-09-20T01:10:22.263Z,30.81
2022-09-20T01:12:50.440Z,31.17
2022-09-20T01:15:18.347Z,30.93
2022-09-20T01:17:48.089Z,30.21
2022-09-20T01:20:24.968Z,31.08
2022-09-20T01:23:10.625Z,30.58
2022-09-20T01:25:53.026Z,30.34
2022-09-20T01:28:20.782Z,30.59
2022-09-20T01:30:57.324Z,30.52
2022-09-20T01:33:27.428Z,30.40
2022-09-20T01:35:58.025Z,30.53
2022-09-20T01:38:35.227Z,30.71
2022-09-20T01:41:08.906Z,30.60
2022-09-20T01:43:36.138Z,30.26
2022-09-20T01:46:23.689Z,29.97
2022-09-20T01:48:54.200Z,30.23
2022-09-20T01:51:24.157Z,30.12
2022-09-20T01:54:10.182Z,30.81
2022-09-20T01:56:46.485Z,30.71
2022-09-20T01:59:28.902Z,30.66
2022-09-20T02:02:16.550Z,30.77
2022-09-20T02:04:49.744Z,31.34
2022-09-20T02:07:38.067Z,31.44
2022-09-20T02:10:08.303Z,31.42
2022-09-20T02:12:51.784Z,31.23
2022-09-20T02:15:36.490Z,31.06
2022-09-20T02:18:21.162Z,30.94
2022-09-20T02:20:54.754Z,30.97
2022-09-20T02:23:32.128Z,31.31
2022-09-20T02:26:11.819Z,30.61
2022-09-20T02:28:42.146Z,30.78
2022-09-20T02:31:15.272Z,31.04
2022-09-20T02:33:48.594Z,31.02
2022-09-20T02:36:35.797Z,31.31
2022-09-20T02:39:10.893Z,31.48
2022-09-20T02:41:51.593Z,31.26
2022-09-20T02:44:25.065Z,31.41
2022-09-20T02:47:07.616Z,31.51
2022-09-20T02:49:53.424Z,31.44
2022-09-20T02:52:27.736Z,31.37
2022-09-20T02:54:55.024Z,31.06
2022-09-20T02:57:30.753Z,30.30
2022-09-20T03:00:03.491Z,31.07
2022-09-20T03:02:31.176Z,31.29
2022-09-20T03:05:13.077Z,31.09
2022-09-20T03:08:02.999Z,31.54
2022-09-20T03:10:33.171Z,31.08
2022-09-20T03:13:00.440Z,30.87
2022-09-20T03:15:46.132Z,30.56
2022-09-20T03:18:17.345Z,30.20
2022-09-20T03:21:03.335Z,29.83
2022-09-20T03:23:31.070Z,30.03
2022-09-20T03:26:06.552Z,30.56
2022-09-20T03:28:42.810Z,30.50
2022-09-20T03:31:28.629Z,30.93
2022-09-20T03:33:55.924Z,30.11
2022-09-20T03:36:41.844Z,30.29
2022-09-20T03:39:12.231Z,30.83
2022-09-20T03:42:05.720Z,30.78
2022-09-20T03:44:50.131Z,30.71
2022-09-20T03:47:20.258Z,30.97
2022-09-20T03:49:51.269Z,30.80
2022-09-20T03:52:27.408Z,30.49
2022-09-20T03:54:57.523Z,30.13
2022-09-20T03:57:25.356Z,30.04
2022-09-20T03:59:54.290Z,30.82
2022-09-20T04:02:36.181Z,30.63
2022-09-20T04:05:09.582Z,30.32
2022-09-20T04:07:58.348Z,30.49
2022-09-20T04:10:29.783Z,30.74
2022-09-20T04:13:17.674Z,30.43
2022-09-20T04:15:56.815Z,30.87
2022-09-20T04:18:42.868Z,30.61
2022-09-20T04:21:29.790Z,30.62
2022-09-20T04:24:01.359Z,30.55
2022-09-20T04:26:29.982Z,30.88
2022-09-20T04:29:14.435Z,30.66
2022-09-20T04:31:43.050Z,31.01
2022-09-20T04:34:19.768Z,30.65
2022-09-20T04:36:47.064Z,30.36
2022-09-20T04:39:26.458Z,31.18
2022-09-20T04:42:12.644Z,30.85
2022-09-20T04:44:58.155Z,30.64
2022-09-20T04:47:43.948Z,30.58
2022-09-20T04:50:23.309Z,30.42
2022-09-20T04:52:56.651Z,30.14
2022-09-20T04:55:29.881Z,29.83
2022-09-20T04:58:06.136Z,30.30
2022-09-20T05:00:52.375Z,30.35
2022-09-20T05:03:23.222Z,30.03
2022-09-20T05:06:08.943Z,30.65
2022-09-20T05:08:56.636Z,30.37
2022-09-20T05:11:30.635Z,30.38
2022-09-20T05:14:24.921Z,30.47
2022-09-20T05:17:12.365Z,30.33
2022-09-20T05:19:58.700Z,30.90
2022-09-20T05:22:44.404Z,30.55
2022-09-20T05:25:15.407Z,30.59
2022-09-20T05:27:58.647Z,29.92
2022-09-20T05:30:39.386Z,30.95
2022-09-20T05:33:06.570Z,30.60
2022-09-20T05:35:36.487Z,30.94
2022-09-20T05:38:22.855Z,30.74
2022-09-20T05:41:09.360Z,30.48
2022-09-20T05:43:39.835Z,31.14
2022-09-20T05:46:19.144Z,31.23
2022-09-20T05:49:11.031Z,31.19
2022-09-20T05:51:47.115Z,30.64
2022-09-20T05:54:26.535Z,30.80
2022-09-20T05:57:12.196Z,30.66
2022-09-20T05:59:58.800Z,30.79
2022-09-20T06:02:44.547Z,30.82
2022-09-20T06:05:15.085Z,30.83
2022-09-20T06:08:02.437Z,30.49
2022-09-20T06:10:41.936Z,30.68
2022-09-20T06:13:24.552Z,30.83
2022-09-20T06:15:58.880Z,30.85
2022-09-20T06:18:29.451Z,30.60
2022-09-20T06:20:56.817Z,30.41
2022-09-20T06:23:24.945Z,30.50
2022-09-20T06:25:57.725Z,30.25
2022-09-20T06:28:34.362Z,30.70
2022-09-20T06:31:07.387Z,30.90
2022-09-20T06:33:40.737Z,30.60
2022-09-20T06:36:29.382Z,31.18
2022-09-20T06:39:30.764Z,31.36
2022-09-20T06:41:59.732Z,30.86
2022-09-20T06:44:26.901Z,31.10
2022-09-20T06:46:54.456Z,31.04
2022-09-20T06:49:22.018Z,31.09
2022-09-20T06:51:52.529Z,31.33
2022-09-20T06:54:21.186Z,31.29
2022-09-20T06:56:50.000Z,31.42
2022-09-20T06:59:17.199Z,31.06
2022-09-20T07:01:44.494Z,31.10
2022-09-20T07:04:11.912Z,29.82
2022-09-20T07:06:39.471Z,29.87
2022-09-20T07:09:06.827Z,30.66
2022-09-20T07:11:34.594Z,31.18
2022-09-20T07:14:02.037Z,30.60
2022-09-20T07:16:29.574Z,30.95
2022-09-20T07:18:57.022Z,30.74
2022-09-20T07:21:24.294Z,29.72
2022-09-20T07:23:54.005Z,29.05
2022-09-20T07:26:26.618Z,28.56
2022-09-20T07:28:54.854Z,28.42
2022-09-20T07:31:23.261Z,28.40
2022-09-20T07:33:50.568Z,29.53
2022-09-20T07:36:18.214Z,29.92
2022-09-20T07:38:52.518Z,30.70
2022-09-20T07:41:20.402Z,30.49
2022-09-20T07:43:47.612Z,30.46
2022-09-20T07:46:15.085Z,30.51
2022-09-20T07:48:42.806Z,30.64
2022-09-20T07:51:11.752Z,30.16
2022-09-20T07:53:39.270Z,30.92
2022-09-20T07:56:07.899Z,31.17
2022-09-20T07:58:35.861Z,31.05
2022-09-20T08:01:04.625Z,30.35
2022-09-20T08:03:33.199Z,30.34
2022-09-20T08:06:01.378Z,30.04
2022-09-20T08:08:31.853Z,30.00
2022-09-20T08:11:09.547Z,30.68
2022-09-20T08:16:29.122Z,30.59
2022-09-20T08:18:57.785Z,29.42
2022-09-20T08:21:26.278Z,30.30
2022-09-20T08:23:56.360Z,30.95
2022-09-20T08:26:27.350Z,30.80
2022-09-20T08:28:58.522Z,31.25
2022-09-20T08:31:27.463Z,30.81
2022-09-20T08:33:55.004Z,30.92
2022-09-20T08:36:24.475Z,30.62
2022-09-20T08:41:46.261Z,30.80
2022-09-20T08:44:13.524Z,30.33
2022-09-20T08:46:43.952Z,30.38
2022-09-20T08:49:16.950Z,30.80
2022-09-20T08:51:48.556Z,30.80
2022-09-20T08:54:16.625Z,30.60
2022-09-20T08:56:45.504Z,30.75
2022-09-20T08:59:17.471Z,30.40
2022-09-20T09:01:45.473Z,30.21
2022-09-20T09:04:14.854Z,30.45
2022-09-20T09:06:42.990Z,30.67
2022-09-20T09:09:21.142Z,30.76
2022-09-20T09:11:49.317Z,30.88
2022-09-20T09:14:43.948Z,30.69
2022-09-20T09:17:12.154Z,30.99
2022-09-20T09:19:59.620Z,30.82
2022-09-20T09:22:36.951Z,30.01
2022-09-20T09:25:09.283Z,30.29
2022-09-20T09:27:49.528Z,30.43
2022-09-20T09:30:22.680Z,29.72
2022-09-20T09:32:50.211Z,29.42
2022-09-20T09:35:30.379Z,29.31
2022-09-20T09:38:04.543Z,30.06
2022-09-20T09:40:32.481Z,30.68
2022-09-20T09:43:01.932Z,30.97
2022-09-20T09:45:31.633Z,30.57
2022-09-20T09:48:00.552Z,30.89
2022-09-20T09:50:31.906Z,30.70
2022-09-20T09:53:21.272Z,30.38
2022-09-20T09:56:03.664Z,30.59
2022-09-20T09:58:37.889Z,30.66
2022-09-20T10:01:07.352Z,30.18
2022-09-20T10:03:47.777Z,30.35
2022-09-20T10:06:30.508Z,30.57
2022-09-20T10:09:10.157Z,30.33
2022-09-20T10:12:03.995Z,29.92
2022-09-20T10:14:31.257Z,30.27
2022-09-20T10:17:16.484Z,29.61
2022-09-20T10:19:46.915Z,30.54
2022-09-20T10:22:17.312Z,30.09
2022-09-20T10:24:55.246Z,30.23
2022-09-20T10:27:22.506Z,29.49
2022-09-20T10:29:59.684Z,29.74
2022-09-20T10:32:50.307Z,29.79
2022-09-20T10:35:23.954Z,30.46
2022-09-20T10:38:00.947Z,30.26
2022-09-20T10:40:53.091Z,30.14
2022-09-20T10:43:40.362Z,30.19
2022-09-20T10:46:33.186Z,29.93
2022-09-20T10:49:25.084Z,29.94
2022-09-20T10:51:53.084Z,30.84
2022-09-20T10:54:46.787Z,30.59
2022-09-20T10:57:46.573Z,30.48
2022-09-20T11:00:22.409Z,30.52
2022-09-20T11:03:19.094Z,30.42
2022-09-20T11:05:52.420Z,30.30
2022-09-20T11:08:22.864Z,29.39
2022-09-20T11:11:00.309Z,30.29
2022-09-20T11:13:47.847Z,30.41
2022-09-20T11:16:18.741Z,30.32
2022-09-20T11:18:58.944Z,30.05
2022-09-20T11:21:34.787Z,29.79
2022-09-20T11:24:20.004Z,30.33
2022-09-20T11:27:16.520Z,30.44
2022-09-20T11:29:50.304Z,30.94
2022-09-20T11:32:20.834Z,30.75
2022-09-20T11:34:51.018Z,30.58
2022-09-20T11:37:18.843Z,30.27
2022-09-20T11:39:46.476Z,30.70
2022-09-20T11:42:19.632Z,29.85
2022-09-20T11:44:47.274Z,30.80
2022-09-20T11:47:31.465Z,30.54
2022-09-20T11:50:12.920Z,30.51
2022-09-20T11:52:40.103Z,30.64
2022-09-20T11:55:19.109Z,30.34
2022-09-20T11:57:57.973Z,30.79
2022-09-20T12:00:35.303Z,30.83
2022-09-20T12:03:04.133Z,30.06
2022-09-20T12:05:34.031Z,30.76
2022-09-20T12:08:07.350Z,30.91
2022-09-20T12:10:37.654Z,30.54
2022-09-20T12:13:06.976Z,30.42
2022-09-20T12:15:41.063Z,31.14
2022-09-20T12:18:15.598Z,30.75
2022-09-20T12:20:42.821Z,30.81
2022-09-20T12:23:28.662Z,31.05
2022-09-20T12:26:03.141Z,30.90
2022-09-20T12:28:37.833Z,30.89
2022-09-20T12:31:32.398Z,31.19
2022-09-20T12:34:11.957Z,30.97
2022-09-20T12:36:43.175Z,30.82
2022-09-20T12:39:16.226Z,31.01
2022-09-20T12:41:51.430Z,30.78
2022-09-20T12:44:38.688Z,30.98
2022-09-20T12:47:11.940Z,30.07
2022-09-20T12:50:06.887Z,30.40
2022-09-20T12:53:00.653Z,30.35
2022-09-20T12:55:30.840Z,30.82
2022-09-20T12:58:02.630Z,30.33
2022-09-20T13:00:39.048Z,30.55
2022-09-20T13:03:15.451Z,30.35
2022-09-20T13:05:46.007Z,30.57
2022-09-20T13:08:20.064Z,30.07
2022-09-20T13:10:51.908Z,30.50
2022-09-20T13:13:33.614Z,30.32
2022-09-20T13:16:05.654Z,29.48
2022-09-20T13:18:34.592Z,30.02
2022-09-20T13:21:06.802Z,30.23
2022-09-20T13:23:42.395Z,30.06
2022-09-20T13:26:13.136Z,30.36
2022-09-20T13:28:45.980Z,30.42
2022-09-20T13:31:22.129Z,30.65
2022-09-20T13:33:49.867Z,29.95
2022-09-20T13:36:28.326Z,30.67
2022-09-20T13:38:56.965Z,30.77
2022-09-20T13:41:27.612Z,30.24
2022-09-20T13:43:55.059Z,30.35
2022-09-20T13:46:29.886Z,30.13
2022-09-20T13:49:15.033Z,30.75
2022-09-20T13:51:42.413Z,31.11
2022-09-20T13:54:20.144Z,31.10
2022-09-20T13:56:47.680Z,30.79
2022-09-20T13:59:19.650Z,30.65
2022-09-20T14:01:54.573Z,30.96
2022-09-20T14:04:23.815Z,30.82
2022-09-20T14:06:52.773Z,30.98
2022-09-20T14:09:31.403Z,30.97
2022-09-20T14:11:59.288Z,30.74
2022-09-20T14:14:27.705Z,31.45
2022-09-20T14:16:56.613Z,30.53
2022-09-20T14:19:37.316Z,30.90
2022-09-20T14:22:05.284Z,30.94
2022-09-20T14:24:35.736Z,31.49
2022-09-20T14:27:13.932Z,31.02
2022-09-20T14:29:42.819Z,30.47
2022-09-20T14:32:22.255Z,30.59
2022-09-20T14:34:55.982Z,30.94
2022-09-20T14:37:28.523Z,31.18
2022-09-20T14:40:04.569Z,31.23
2022-09-20T14:42:31.925Z,30.94
2022-09-20T14:44:59.239Z,30.29
2022-09-20T14:47:27.791Z,30.36
2022-09-20T14:49:55.990Z,30.40
2022-09-20T14:52:26.735Z,30.24
2022-09-20T14:55:12.813Z,30.61
2022-09-20T14:57:41.099Z,31.06
2022-09-20T15:00:11.975Z,31.25
2022-09-20T15:02:41.528Z,29.00
2022-09-20T15:05:17.269Z,28.34
2022-09-20T15:07:45.346Z,27.98
2022-09-20T15:10:13.189Z,27.90
2022-09-20T15:12:40.421Z,29.22
2022-09-20T15:15:14.911Z,30.09
2022-09-20T15:17:42.806Z,30.44
2022-09-20T15:20:15.186Z,30.69
2022-09-20T15:22:43.156Z,31.00
2022-09-20T15:25:14.335Z,30.92
2022-09-20T15:27:42.333Z,30.88
2022-09-20T15:30:10.164Z,30.20
2022-09-20T15:32:37.523Z,30.34
2022-09-20T15:35:05.161Z,30.80
2022-09-20T15:37:32.544Z,30.84
2022-09-20T15:39:59.719Z,30.71
2022-09-20T15:42:27.066Z,31.26
2022-09-20T15:44:54.556Z,30.97
2022-09-20T15:47:22.188Z,31.57
2022-09-20T15:49:50.429Z,30.63
2022-09-20T15:52:19.221Z,30.89
2022-09-20T15:54:46.723Z,31.18
2022-09-20T15:57:14.103Z,31.25
2022-09-20T15:59:41.689Z,31.54
2022-09-20T16:02:09.574Z,31.42
2022-09-20T16:04:37.199Z,31.47
2022-09-20T16:07:06.289Z,31.44
2022-09-20T16:09:35.005Z,31.40
2022-09-20T16:12:04.599Z,31.03
2022-09-20T16:14:31.948Z,31.52
2022-09-20T16:16:59.140Z,30.44
2022-09-20T16:19:26.438Z,31.06
2022-09-20T16:21:58.278Z,31.42
2022-09-20T16:24:30.411Z,31.50
2022-09-20T16:26:58.231Z,31.53
2022-09-20T16:29:26.154Z,31.29
2022-09-20T16:31:54.519Z,31.65
2022-09-20T16:34:30.626Z,31.43
2022-09-20T16:37:05.886Z,31.50
2022-09-20T16:39:33.435Z,31.35
2022-09-20T16:42:03.729Z,31.74
2022-09-20T16:44:32.011Z,31.57
2022-09-20T16:46:59.279Z,32.00
2022-09-20T16:49:28.876Z,32.03
2022-09-20T16:51:56.309Z,32.00
2022-09-20T16:54:23.524Z,32.53
2022-09-20T16:56:51.195Z,32.20
2022-09-20T16:59:21.542Z,32.16
2022-09-20T17:01:49.690Z,31.95
2022-09-20T17:04:18.510Z,32.10
2022-09-20T17:06:46.079Z,31.91
2022-09-20T17:09:13.715Z,31.51
2022-09-20T17:11:46.011Z,31.72
2022-09-20T17:14:13.691Z,32.01
2022-09-20T17:16:42.315Z,31.90
2022-09-20T17:19:11.533Z,31.67
2022-09-20T17:21:40.001Z,31.73
2022-09-20T17:24:07.751Z,31.72
2022-09-20T17:26:37.672Z,31.39
2022-09-20T17:29:06.647Z,31.32
2022-09-20T17:31:35.453Z,31.15
2022-09-20T17:34:04.963Z,30.96
2022-09-20T17:36:33.187Z,30.69
2022-09-20T17:39:04.153Z,30.56
2022-09-20T17:41:32.868Z,31.00
2022-09-20T17:44:00.799Z,30.95
2022-09-20T17:46:30.502Z,31.35
2022-09-20T17:49:00.637Z,30.87
2022-09-20T17:51:31.995Z,31.33
2022-09-20T17:53:59.491Z,31.48
2022-09-20T17:56:31.077Z,30.85
2022-09-20T17:58:59.149Z,31.24
2022-09-20T18:01:27.464Z,30.71
2022-09-20T18:03:58.900Z,30.45
2022-09-20T18:06:40.987Z,30.54
2022-09-20T18:09:10.103Z,30.73
2022-09-20T18:11:41.407Z,30.59
2022-09-20T18:14:10.556Z,31.40
2022-09-20T18:16:38.837Z,31.36
2022-09-20T18:19:06.928Z,31.25
2022-09-20T18:21:36.155Z,31.27
2022-09-20T18:24:07.408Z,31.47
2022-09-20T18:26:35.175Z,31.38
2022-09-20T18:29:12.876Z,31.02
2022-09-20T18:31:43.258Z,31.20
2022-09-20T18:34:17.944Z,31.14
2022-09-20T18:36:48.518Z,31.42
2022-09-20T18:39:15.730Z,31.19
2022-09-20T18:41:44.044Z,31.31
2022-09-20T18:44:14.505Z,31.02
2022-09-20T18:46:42.056Z,30.71
2022-09-20T18:49:10.691Z,31.02
2022-09-20T18:51:40.091Z,31.04
2022-09-20T18:54:11.389Z,30.84
2022-09-20T18:56:39.970Z,30.83
2022-09-20T18:59:17.328Z,30.64
2022-09-20T19:01:50.976Z,30.81
2022-09-20T19:04:32.145Z,31.23
2022-09-20T19:07:08.860Z,31.15
2022-09-20T19:09:54.459Z,30.97
2022-09-20T19:12:34.188Z,31.30
2022-09-20T19:15:20.088Z,31.38
2022-09-20T19:17:53.785Z,31.01
2022-09-20T19:20:39.667Z,31.09
2022-09-20T19:23:25.652Z,31.32
2022-09-20T19:26:03.282Z,31.47
2022-09-20T19:28:30.796Z,31.24
2022-09-20T19:30:58.327Z,31.34
2022-09-20T19:33:25.636Z,31.63
2022-09-20T19:35:52.951Z,31.58
2022-09-20T19:38:20.205Z,31.63
2022-09-20T19:40:59.777Z,31.28
2022-09-20T19:43:27.171Z,31.58
2022-09-20T19:45:57.306Z,31.50
2022-09-20T19:48:32.628Z,31.67
2022-09-20T19:51:02.586Z,31.49
2022-09-20T19:53:30.195Z,31.29
2022-09-20T19:56:00.775Z,31.58
2022-09-20T19:58:28.496Z,31.49
2022-09-20T20:00:55.871Z,31.37
2022-09-20T20:03:26.249Z,31.32
2022-09-20T20:06:07.671Z,31.29
2022-09-20T20:08:43.276Z,31.64
2022-09-20T20:11:10.578Z,31.75
2022-09-20T20:14:03.276Z,31.79
2022-09-20T20:16:42.599Z,32.11
2022-09-20T20:19:09.815Z,31.96
2022-09-20T20:21:36.970Z,31.74
2022-09-20T20:24:16.060Z,31.66
2022-09-20T20:26:43.261Z,31.76
2022-09-20T20:29:11.938Z,31.85
2022-09-20T20:31:39.267Z,31.26
2022-09-20T20:34:07.086Z,31.83
2022-09-20T20:36:34.759Z,31.55
2022-09-20T20:39:02.816Z,31.74
2022-09-20T20:41:31.694Z,31.79
2022-09-20T20:43:59.017Z,31.76
2022-09-20T20:46:26.482Z,31.82
2022-09-20T20:48:53.891Z,31.93
2022-09-20T20:51:22.060Z,31.85
2022-09-20T20:53:50.682Z,32.05
2022-09-20T20:56:19.627Z,31.84
2022-09-20T20:58:47.905Z,31.68
2022-09-20T21:01:52.407Z,31.64
2022-09-20T21:04:33.281Z,31.90
2022-09-20T21:07:00.850Z,31.63
2022-09-20T21:09:28.065Z,31.81
2022-09-20T21:11:55.359Z,31.88
2022-09-20T21:14:22.769Z,31.76
2022-09-20T21:16:51.287Z,31.69
2022-09-20T21:19:19.153Z,31.82
2022-09-20T21:21:47.909Z,31.76
2022-09-20T21:24:17.451Z,31.93
2022-09-20T21:26:45.757Z,31.99
2022-09-20T21:29:14.510Z,31.85
2022-09-20T21:31:44.033Z,31.86
2022-09-20T21:34:12.250Z,31.28
2022-09-20T21:36:41.597Z,31.83
2022-09-20T21:39:09.060Z,31.55
2022-09-20T21:41:37.668Z,31.92
2022-09-20T21:44:05.774Z,31.92
2022-09-20T21:46:34.719Z,31.90
2022-09-20T21:49:04.115Z,31.79
2022-09-20T21:51:31.924Z,32.08
2022-09-20T21:54:01.507Z,32.13
2022-09-20T21:56:31.412Z,32.01
2022-09-20T21:58:59.510Z,31.37
2022-09-20T22:01:27.806Z,31.53
2022-09-20T22:03:57.522Z,31.30
2022-09-20T22:06:26.525Z,31.72
2022-09-20T22:08:56.724Z,31.36
2022-09-20T22:11:24.913Z,31.49
2022-09-20T22:13:53.588Z,31.33
2022-09-20T22:16:24.928Z,31.71
2022-09-20T22:18:52.765Z,31.85
2022-09-20T22:21:21.740Z,31.45
2022-09-20T22:23:50.177Z,31.53
2022-09-20T22:26:18.560Z,30.96
2022-09-20T22:28:45.863Z,31.29
2022-09-20T22:31:14.193Z,31.53
2022-09-20T22:33:51.439Z,31.40
2022-09-20T22:36:22.973Z,31.50
2022-09-20T22:38:50.219Z,31.55
2022-09-20T22:41:18.315Z,31.43
2022-09-20T22:43:46.043Z,31.23
2022-09-20T22:46:17.500Z,31.38
2022-09-20T22:48:45.046Z,31.53
2022-09-20T22:51:14.761Z,31.73
2022-09-20T22:53:42.187Z,31.57
2022-09-20T22:56:10.869Z,31.26
2022-09-20T22:58:39.642Z,31.43
2022-09-20T23:01:12.849Z,31.65
2022-09-20T23:03:41.713Z,31.83
2022-09-20T23:06:15.570Z,31.57
2022-09-20T23:08:42.964Z,32.16
2022-09-20T23:11:10.471Z,31.64
2022-09-20T23:13:37.805Z,31.73
2022-09-20T23:16:31.164Z,31.74
2022-09-20T23:18:59.852Z,31.27
2022-09-20T23:21:27.969Z,31.58
2022-09-20T23:23:56.581Z,31.63
2022-09-20T23:26:25.464Z,31.16
2022-09-20T23:28:54.721Z,31.58
2022-09-20T23:31:22.651Z,31.25
2022-09-20T23:33:51.675Z,31.77
2022-09-20T23:36:19.415Z,31.46
2022-09-20T23:38:47.375Z,31.35
2022-09-20T23:41:15.560Z,31.40
2022-09-20T23:43:42.839Z,31.84
2022-09-20T23:46:11.340Z,31.31
2022-09-20T23:48:41.459Z,31.30
2022-09-20T23:51:13.110Z,31.39
2022-09-20T23:53:40.588Z,31.42
2022-09-20T23:56:08.314Z,30.89
2022-09-20T23:58:36.465Z,31.20
